Time;durP1;ratioP1;P1;durP2;ratioP2;P2;SDS_P1;SDS_P2;PMS_P1;PMS_P2;Temp;Humidity;BMP_temperature;BMP_pressure;BME280_temperature;BME280_humidity;BME280_pressure;Samples;Min_cycle;Max_cycle;Signal;HPM_P1;HPM_P2
2022/07/07 00:01:32;;;;;;;10.50;2.30;;;;;;;;;;4989649;28;20049;-69
2022/07/07 00:03:57;;;;;;;6.03;2.53;;;;;;;;;;4989397;28;20758;-69
2022/07/07 00:06:22;;;;;;;5.00;2.58;;;;;;;;;;4989439;28;20076;-69
2022/07/07 00:08:48;;;;;;;12.00;2.47;;;;;;;;;;4987455;28;20031;-69
2022/07/07 00:11:16;;;;;;;12.17;2.67;;;;;;;;;;4989549;28;20037;-69
2022/07/07 00:13:41;;;;;;;8.85;2.70;;;;;;;;;;4983761;28;20266;-69
2022/07/07 00:16:06;;;;;;;10.98;2.83;;;;;;;;;;4987138;28;20153;-69
2022/07/07 00:18:31;;;;;;;5.60;2.67;;;;;;;;;;4986062;28;20038;-69
2022/07/07 00:20:57;;;;;;;14.00;3.73;;;;;;;;;;4992248;28;20512;-69
2022/07/07 00:23:22;;;;;;;15.20;3.03;;;;;;;;;;4991831;28;20277;-69
2022/07/07 00:25:47;;;;;;;15.27;4.63;;;;;;;;;;4992162;28;20336;-69
2022/07/07 00:28:12;;;;;;;9.60;3.17;;;;;;;;;;4991156;28;20507;-69
2022/07/07 00:30:38;;;;;;;13.68;3.97;;;;;;;;;;4992287;28;20034;-69
2022/07/07 00:33:03;;;;;;;12.70;3.35;;;;;;;;;;4990486;28;20070;-69
2022/07/07 00:35:28;;;;;;;11.80;3.87;;;;;;;;;;4992162;28;20029;-69
2022/07/07 00:37:53;;;;;;;13.93;3.73;;;;;;;;;;4990182;28;20026;-69
2022/07/07 00:40:18;;;;;;;11.37;2.47;;;;;;;;;;4991553;28;20360;-69
2022/07/07 00:42:44;;;;;;;8.47;2.50;;;;;;;;;;4991300;28;20269;-69
2022/07/07 00:45:09;;;;;;;11.87;3.17;;;;;;;;;;4991014;28;20654;-69
2022/07/07 00:47:35;;;;;;;6.65;2.20;;;;;;;;;;4991914;28;20308;-69
2022/07/07 00:50:00;;;;;;;8.82;2.67;;;;;;;;;;4989004;28;20018;-69
2022/07/07 00:52:25;;;;;;;11.25;2.55;;;;;;;;;;4991487;28;20534;-70
2022/07/07 00:54:51;;;;;;;9.40;2.57;;;;;;;;;;4991261;28;20029;-69
2022/07/07 00:57:17;;;;;;;9.88;2.95;;;;;;;;;;4991154;28;20331;-69
2022/07/07 00:59:42;;;;;;;9.45;2.08;;;;;;;;;;4989935;28;20030;-69
2022/07/07 01:02:07;;;;;;;12.67;4.43;;;;;;;;;;4990989;28;20026;-69
2022/07/07 01:04:32;;;;;;;16.13;2.55;;;;;;;;;;4993250;28;20264;-69
2022/07/07 01:06:58;;;;;;;5.50;2.37;;;;;;;;;;4989696;28;20391;-69
2022/07/07 01:09:23;;;;;;;17.45;3.20;;;;;;;;;;4990057;28;20289;-69
2022/07/07 01:11:50;;;;;;;10.88;3.15;;;;;;;;;;4991351;28;20053;-70
2022/07/07 01:14:16;;;;;;;8.90;2.70;;;;;;;;;;4990725;28;20084;-70
2022/07/07 01:16:41;;;;;;;14.73;3.10;;;;;;;;;;4991093;28;20058;-69
2022/07/07 01:19:36;;;;;;;;;;;;;;;;;;;;;
2022/07/07 01:22:23;;;;;;;10.70;3.05;;;;;;;;;;4981054;28;20397;-91
2022/07/07 01:25:18;;;;;;;10.70;3.70;;;;;;;;;;4990554;28;20030;-90
2022/07/07 01:27:50;;;;;;;9.20;3.85;;;;;;;;;;4973382;28;20121;-91
2022/07/07 01:30:31;;;;;;;11.82;4.18;;;;;;;;;;4989103;28;20216;-90
2022/07/07 01:33:00;;;;;;;9.07;3.28;;;;;;;;;;4986063;28;20033;-90
2022/07/07 01:35:47;;;;;;;;;;;;;;;;;;4972097;28;20390;-90
2022/07/07 01:38:23;;;;;;;14.80;4.40;;;;;;;;;;4986053;28;20576;-91
2022/07/07 01:41:21;;;;;;;;;;;;;;;;;;;;;
2022/07/07 01:43:56;;;;;;;14.63;3.97;;;;;;;;;;4977428;28;20044;-91
2022/07/07 01:50:00;;;;;;;;;;;;;;;;;;;;;
2022/07/07 01:52:37;;;;;;;8.82;3.85;;;;;;;;;;4988299;28;20370;-90
2022/07/07 01:55:12;;;;;;;8.98;4.78;;;;;;;;;;4985265;28;20030;-90
2022/07/07 01:57:54;;;;;;;13.38;3.72;;;;;;;;;;4991686;28;20501;-91
2022/07/07 02:00:59;;;;;;;10.63;4.35;;;;;;;;;;4986103;28;20025;-91
2022/07/07 02:03:43;;;;;;;;;;;;;;;;;;;;;
2022/07/07 02:06:29;;;;;;;;;;;;;;;;;;;;;
2022/07/07 02:09:12;;;;;;;10.15;3.60;;;;;;;;;;4995353;28;20018;-91
2022/07/07 02:12:18;;;;;;;7.53;3.10;;;;;;;;;;4992266;28;20101;-90
2022/07/07 02:14:48;;;;;;;9.88;3.45;;;;;;;;;;4991056;28;20030;-90
2022/07/07 02:17:34;;;;;;;9.15;3.30;;;;;;;;;;4988757;28;20109;-90
2022/07/07 02:20:02;;;;;;;13.63;3.40;;;;;;;;;;5022215;23;20050;-90
2022/07/07 02:22:54;;;;;;;9.35;3.53;;;;;;;;;;5008874;28;20025;-91
2022/07/07 02:25:20;;;;;;;6.78;3.40;;;;;;;;;;5020050;22;20049;-66
2022/07/07 02:27:45;;;;;;;9.70;3.10;;;;;;;;;;5007839;28;20021;-67
2022/07/07 02:30:10;;;;;;;15.23;4.13;;;;;;;;;;5008110;28;20847;-66
2022/07/07 02:32:35;;;;;;;13.40;3.67;;;;;;;;;;5008523;28;20359;-67
2022/07/07 02:35:01;;;;;;;8.30;3.10;;;;;;;;;;5009869;28;20058;-67
2022/07/07 02:37:27;;;;;;;6.70;3.00;;;;;;;;;;5008393;28;20311;-66
2022/07/07 02:39:52;;;;;;;7.13;3.20;;;;;;;;;;5009873;28;20096;-66
2022/07/07 02:42:17;;;;;;;11.95;3.90;;;;;;;;;;5008881;28;20083;-66
2022/07/07 02:44:42;;;;;;;9.67;3.50;;;;;;;;;;5009608;28;20022;-66
2022/07/07 02:47:07;;;;;;;13.40;3.65;;;;;;;;;;5007803;28;20292;-67
2022/07/07 02:49:33;;;;;;;12.35;3.28;;;;;;;;;;5009558;28;20017;-65
2022/07/07 02:51:58;;;;;;;7.97;3.03;;;;;;;;;;5008795;28;20030;-66
2022/07/07 02:54:23;;;;;;;11.50;4.77;;;;;;;;;;5010675;28;20264;-66
2022/07/07 02:56:48;;;;;;;7.18;3.20;;;;;;;;;;5008199;28;20439;-67
2022/07/07 02:59:13;;;;;;;13.30;3.83;;;;;;;;;;5009884;28;20084;-66
2022/07/07 03:01:39;;;;;;;10.10;3.80;;;;;;;;;;5009201;28;20025;-65
2022/07/07 03:04:04;;;;;;;15.03;3.70;;;;;;;;;;5007286;28;20696;-66
2022/07/07 03:06:29;;;;;;;15.73;3.92;;;;;;;;;;5008052;28;20371;-66
2022/07/07 03:08:54;;;;;;;7.30;3.03;;;;;;;;;;5009214;28;20108;-66
2022/07/07 03:11:19;;;;;;;8.27;3.57;;;;;;;;;;5009272;28;20264;-67
2022/07/07 03:13:45;;;;;;;13.30;3.07;;;;;;;;;;5007959;28;20689;-67
2022/07/07 03:16:10;;;;;;;12.17;3.40;;;;;;;;;;5007930;28;20311;-67
2022/07/07 03:18:35;;;;;;;12.73;4.07;;;;;;;;;;5009280;28;20021;-66
2022/07/07 03:21:00;;;;;;;11.07;3.20;;;;;;;;;;5009571;28;20276;-66
2022/07/07 03:23:25;;;;;;;10.67;2.90;;;;;;;;;;5005164;28;20279;-66
2022/07/07 03:25:50;;;;;;;7.67;3.17;;;;;;;;;;5009937;28;20364;-66
2022/07/07 03:28:16;;;;;;;8.97;4.10;;;;;;;;;;5007962;28;20276;-68
2022/07/07 03:30:41;;;;;;;8.70;3.08;;;;;;;;;;5008420;28;20285;-66
2022/07/07 03:33:06;;;;;;;9.85;2.97;;;;;;;;;;5008740;28;20026;-66
2022/07/07 03:35:31;;;;;;;15.53;3.67;;;;;;;;;;5007126;28;20033;-66
2022/07/07 03:37:57;;;;;;;6.87;3.13;;;;;;;;;;5007116;28;20760;-66
2022/07/07 03:40:22;;;;;;;11.80;4.17;;;;;;;;;;5009066;28;20030;-65
2022/07/07 03:42:47;;;;;;;10.23;4.00;;;;;;;;;;5008847;28;20681;-66
2022/07/07 03:45:12;;;;;;;13.93;3.93;;;;;;;;;;5006279;28;20026;-66
2022/07/07 03:47:37;;;;;;;8.87;4.30;;;;;;;;;;5008325;28;20030;-66
2022/07/07 03:50:03;;;;;;;11.75;4.57;;;;;;;;;;5011972;28;20281;-67
2022/07/07 03:52:28;;;;;;;13.60;4.00;;;;;;;;;;5010290;28;20510;-66
2022/07/07 03:54:53;;;;;;;12.57;3.22;;;;;;;;;;5012446;28;20068;-66
2022/07/07 03:57:18;;;;;;;8.88;3.80;;;;;;;;;;5011491;28;20021;-66
2022/07/07 03:59:44;;;;;;;11.43;3.60;;;;;;;;;;5013090;28;20025;-66
2022/07/07 04:02:09;;;;;;;10.30;4.03;;;;;;;;;;5010255;28;20072;-67
2022/07/07 04:04:35;;;;;;;9.88;3.58;;;;;;;;;;5007938;28;20364;-67
2022/07/07 04:07:00;;;;;;;10.98;3.25;;;;;;;;;;5012544;28;20025;-66
2022/07/07 04:09:25;;;;;;;4.83;2.97;;;;;;;;;;5012636;28;20033;-65
2022/07/07 04:11:50;;;;;;;7.15;3.60;;;;;;;;;;5011757;28;20269;-67
2022/07/07 04:14:15;;;;;;;8.00;2.90;;;;;;;;;;5011824;28;20053;-67
2022/07/07 04:16:41;;;;;;;7.90;3.17;;;;;;;;;;5010557;28;20672;-67
2022/07/07 04:19:07;;;;;;;13.60;3.27;;;;;;;;;;5012526;28;20292;-66
2022/07/07 04:21:32;;;;;;;6.85;3.00;;;;;;;;;;5012570;28;20280;-66
2022/07/07 04:23:57;;;;;;;6.43;3.10;;;;;;;;;;5005897;28;20022;-66
2022/07/07 04:26:22;;;;;;;7.10;3.27;;;;;;;;;;5009540;28;20360;-66
2022/07/07 04:28:48;;;;;;;4.82;3.15;;;;;;;;;;5009050;28;20018;-66
2022/07/07 04:31:13;;;;;;;5.37;3.77;;;;;;;;;;5008859;28;20030;-66
2022/07/07 04:33:38;;;;;;;12.73;3.30;;;;;;;;;;5010109;28;20033;-67
2022/07/07 04:36:03;;;;;;;11.03;3.57;;;;;;;;;;5010546;28;20784;-66
2022/07/07 04:38:28;;;;;;;10.18;4.00;;;;;;;;;;5011582;28;20021;-66
2022/07/07 04:40:54;;;;;;;6.93;3.37;;;;;;;;;;5010913;28;20018;-66
2022/07/07 04:43:19;;;;;;;7.63;3.38;;;;;;;;;;5009381;28;20789;-65
2022/07/07 04:45:44;;;;;;;7.03;3.63;;;;;;;;;;5012404;28;20029;-67
2022/07/07 04:48:09;;;;;;;9.47;4.70;;;;;;;;;;5002739;28;20265;-67
2022/07/07 04:50:34;;;;;;;14.13;4.05;;;;;;;;;;5006798;28;20296;-66
2022/07/07 04:53:00;;;;;;;10.77;4.60;;;;;;;;;;5011488;28;20022;-67
2022/07/07 04:55:25;;;;;;;14.52;5.15;;;;;;;;;;5010014;28;20277;-66
2022/07/07 04:57:50;;;;;;;10.90;4.40;;;;;;;;;;5008899;28;20084;-66
2022/07/07 05:00:16;;;;;;;6.87;3.20;;;;;;;;;;5011955;28;20030;-66
2022/07/07 05:02:41;;;;;;;10.98;3.90;;;;;;;;;;5010021;28;20628;-66
2022/07/07 05:05:07;;;;;;;9.50;4.07;;;;;;;;;;5009609;28;20022;-66
2022/07/07 05:07:32;;;;;;;9.30;3.42;;;;;;;;;;5007343;28;20046;-67
2022/07/07 05:09:57;;;;;;;9.57;4.03;;;;;;;;;;5008420;28;20026;-67
2022/07/07 05:12:22;;;;;;;9.73;3.23;;;;;;;;;;5008943;28;20449;-67
2022/07/07 05:14:48;;;;;;;8.97;4.10;;;;;;;;;;5008836;28;20279;-67
2022/07/07 05:17:13;;;;;;;9.40;3.83;;;;;;;;;;5008782;28;20268;-67
2022/07/07 05:19:38;;;;;;;12.43;4.00;;;;;;;;;;5009126;28;20025;-67
2022/07/07 05:22:03;;;;;;;7.72;3.70;;;;;;;;;;5009302;28;20357;-67
2022/07/07 05:24:29;;;;;;;9.48;3.40;;;;;;;;;;5007823;28;20021;-67
2022/07/07 05:26:54;;;;;;;10.00;3.80;;;;;;;;;;5008339;28;20522;-67
2022/07/07 05:29:19;;;;;;;13.60;4.67;;;;;;;;;;5008908;28;20030;-67
2022/07/07 05:31:44;;;;;;;13.87;4.97;;;;;;;;;;5006846;28;20281;-67
2022/07/07 05:34:09;;;;;;;12.27;4.10;;;;;;;;;;5005710;28;20629;-67
2022/07/07 05:36:35;;;;;;;11.30;4.23;;;;;;;;;;5007449;28;20514;-67
2022/07/07 05:39:00;;;;;;;9.83;3.93;;;;;;;;;;5005853;28;20272;-67
2022/07/07 05:41:25;;;;;;;17.97;4.43;;;;;;;;;;5006621;28;20311;-67
2022/07/07 05:43:50;;;;;;;13.40;4.82;;;;;;;;;;5004058;28;20284;-67
2022/07/07 05:46:15;;;;;;;11.95;3.80;;;;;;;;;;5008758;28;20030;-67
2022/07/07 05:48:41;;;;;;;11.15;3.30;;;;;;;;;;5008122;28;20056;-67
2022/07/07 05:51:06;;;;;;;9.73;3.10;;;;;;;;;;5007710;28;20068;-67
2022/07/07 05:53:31;;;;;;;13.37;3.30;;;;;;;;;;5008075;28;20273;-67
2022/07/07 05:55:57;;;;;;;7.17;3.80;;;;;;;;;;5006277;28;20281;-66
2022/07/07 05:58:22;;;;;;;9.82;4.47;;;;;;;;;;5006127;28;20273;-67
2022/07/07 06:00:47;;;;;;;11.23;3.57;;;;;;;;;;5008677;28;20156;-65
2022/07/07 06:03:12;;;;;;;11.67;4.63;;;;;;;;;;5009388;28;20928;-66
2022/07/07 06:05:37;;;;;;;11.10;4.82;;;;;;;;;;5010697;28;20304;-67
2022/07/07 06:08:03;;;;;;;8.60;3.97;;;;;;;;;;5008860;28;20029;-67
2022/07/07 06:10:28;;;;;;;9.25;4.07;;;;;;;;;;5010180;28;20544;-67
2022/07/07 06:12:55;;;;;;;11.25;5.18;;;;;;;;;;5004937;28;20042;-67
2022/07/07 06:15:20;;;;;;;13.83;3.97;;;;;;;;;;5000931;28;20200;-67
2022/07/07 06:17:46;;;;;;;8.70;2.90;;;;;;;;;;5007999;28;20281;-67
2022/07/07 06:20:11;;;;;;;11.95;3.95;;;;;;;;;;5007759;28;20557;-67
2022/07/07 06:22:36;;;;;;;9.17;3.43;;;;;;;;;;5009210;28;20510;-66
2022/07/07 06:25:02;;;;;;;10.98;3.10;;;;;;;;;;5006098;28;20281;-66
2022/07/07 06:27:27;;;;;;;7.82;2.92;;;;;;;;;;5007929;28;20037;-66
2022/07/07 06:29:55;;;;;;;5.20;2.80;;;;;;;;;;5008903;28;20054;-67
2022/07/07 06:32:20;;;;;;;6.13;2.40;;;;;;;;;;5004894;28;20273;-66
2022/07/07 06:34:45;;;;;;;6.18;2.63;;;;;;;;;;5002635;28;20076;-66
2022/07/07 06:37:10;;;;;;;6.90;2.93;;;;;;;;;;5005164;28;20057;-67
2022/07/07 06:39:36;;;;;;;7.95;2.63;;;;;;;;;;5005682;28;20311;-67
2022/07/07 06:42:01;;;;;;;5.07;2.80;;;;;;;;;;5010603;28;20108;-67
2022/07/07 06:44:30;;;;;;;7.17;2.73;;;;;;;;;;5011075;28;20257;-66
2022/07/07 06:46:57;;;;;;;4.72;2.70;;;;;;;;;;5008275;28;20286;-66
2022/07/07 06:49:22;;;;;;;7.82;3.03;;;;;;;;;;5010110;28;20105;-66
2022/07/07 06:51:47;;;;;;;7.43;2.87;;;;;;;;;;5009038;28;20102;-66
2022/07/07 06:54:12;;;;;;;7.90;2.87;;;;;;;;;;5007651;28;20335;-66
2022/07/07 06:56:37;;;;;;;5.63;2.60;;;;;;;;;;5008394;28;20279;-66
2022/07/07 06:59:03;;;;;;;9.70;3.00;;;;;;;;;;5007336;28;20845;-66
2022/07/07 07:01:28;;;;;;;5.55;1.40;;;;;;;;;;5013599;28;20454;-66
2022/07/07 07:03:53;;;;;;;5.20;1.93;;;;;;;;;;5010833;28;20084;-66
2022/07/07 07:06:19;;;;;;;3.40;1.63;;;;;;;;;;5028085;28;20367;-66
2022/07/07 07:08:45;;;;;;;4.20;1.30;;;;;;;;;;5006783;28;20284;-66
2022/07/07 07:11:10;;;;;;;2.17;1.15;;;;;;;;;;5006108;28;20021;-66
2022/07/07 07:13:35;;;;;;;5.03;1.50;;;;;;;;;;5005726;28;20026;-66
2022/07/07 07:16:00;;;;;;;7.20;1.30;;;;;;;;;;5007877;28;20022;-67
2022/07/07 07:18:26;;;;;;;3.03;1.13;;;;;;;;;;5007383;28;20433;-66
2022/07/07 07:20:51;;;;;;;3.45;1.55;;;;;;;;;;5008871;28;20026;-66
2022/07/07 07:23:16;;;;;;;3.23;1.47;;;;;;;;;;5042995;23;20052;-69
2022/07/07 07:25:42;;;;;;;3.37;1.60;;;;;;;;;;5041958;28;20640;-69
2022/07/07 07:28:07;;;;;;;2.28;1.33;;;;;;;;;;5027490;28;20363;-69
2022/07/07 07:30:32;;;;;;;4.77;1.73;;;;;;;;;;5034457;28;20354;-71
2022/07/07 07:32:57;;;;;;;3.72;1.60;;;;;;;;;;5028849;28;20315;-69
2022/07/07 07:35:22;;;;;;;2.53;1.90;;;;;;;;;;5014446;28;20076;-69
2022/07/07 07:37:48;;;;;;;4.85;1.50;;;;;;;;;;5014552;28;20253;-70
2022/07/07 07:40:13;;;;;;;3.93;1.87;;;;;;;;;;5026482;28;20037;-70
2022/07/07 07:42:38;;;;;;;4.40;2.15;;;;;;;;;;5032560;28;20268;-69
2022/07/07 07:45:10;;;;;;;5.70;2.20;;;;;;;;;;5033386;28;20025;-69
2022/07/07 07:47:38;;;;;;;3.83;2.08;;;;;;;;;;5034134;28;20374;-69
2022/07/07 07:50:04;;;;;;;5.70;2.17;;;;;;;;;;5031505;28;20066;-69
2022/07/07 07:52:29;;;;;;;6.90;2.22;;;;;;;;;;5031347;28;20033;-69
2022/07/07 07:54:54;;;;;;;3.72;1.83;;;;;;;;;;5033298;28;20535;-69
2022/07/07 07:57:19;;;;;;;5.80;2.30;;;;;;;;;;5033034;28;20025;-68
2022/07/07 07:59:45;;;;;;;5.93;1.73;;;;;;;;;;5032472;28;20287;-70
2022/07/07 08:02:10;;;;;;;6.65;1.63;;;;;;;;;;5033280;28;20477;-69
2022/07/07 08:04:35;;;;;;;9.68;1.77;;;;;;;;;;5033852;28;20539;-69
2022/07/07 08:07:00;;;;;;;5.03;2.10;;;;;;;;;;5031438;28;20029;-69
2022/07/07 08:09:26;;;;;;;3.37;1.40;;;;;;;;;;5032466;28;20284;-69
2022/07/07 08:11:52;;;;;;;2.03;0.98;;;;;;;;;;5032497;28;20251;-69
2022/07/07 08:14:17;;;;;;;2.45;0.98;;;;;;;;;;5031392;28;20101;-68
2022/07/07 08:16:42;;;;;;;2.23;0.70;;;;;;;;;;5030660;28;20022;-69
2022/07/07 08:19:07;;;;;;;2.35;0.93;;;;;;;;;;5032115;28;20391;-69
2022/07/07 08:21:32;;;;;;;2.05;1.25;;;;;;;;;;5032356;28;20056;-69
2022/07/07 08:23:58;;;;;;;1.53;1.13;;;;;;;;;;5030482;28;20064;-68
2022/07/07 08:26:23;;;;;;;3.13;1.40;;;;;;;;;;5026489;28;20775;-69
2022/07/07 08:28:48;;;;;;;4.63;1.80;;;;;;;;;;5028789;28;20037;-69
2022/07/07 08:31:13;;;;;;;4.15;1.98;;;;;;;;;;5032274;28;20322;-69
2022/07/07 08:33:39;;;;;;;9.40;1.50;;;;;;;;;;5030626;28;20025;-69
2022/07/07 08:36:04;;;;;;;6.07;1.30;;;;;;;;;;5030345;28;20072;-69
2022/07/07 08:38:29;;;;;;;6.05;1.58;;;;;;;;;;5029248;28;20013;-69
2022/07/07 08:40:55;;;;;;;15.03;1.40;;;;;;;;;;5029035;28;20039;-69
2022/07/07 08:43:20;;;;;;;7.93;1.48;;;;;;;;;;5030895;28;20287;-70
2022/07/07 08:45:47;;;;;;;7.07;1.20;;;;;;;;;;5032786;28;20025;-68
2022/07/07 08:48:12;;;;;;;7.32;1.10;;;;;;;;;;5031991;28;20032;-69
2022/07/07 08:50:38;;;;;;;7.43;1.57;;;;;;;;;;5031670;28;20104;-69
2022/07/07 08:53:03;;;;;;;12.57;1.33;;;;;;;;;;5031279;28;20261;-69
2022/07/07 08:55:30;;;;;;;9.88;1.45;;;;;;;;;;5027654;28;20025;-69
2022/07/07 08:57:55;;;;;;;8.05;1.60;;;;;;;;;;5025946;28;20037;-69
2022/07/07 09:00:22;;;;;;;5.20;0.95;;;;;;;;;;5031615;28;20104;-69
2022/07/07 09:02:49;;;;;;;3.45;0.55;;;;;;;;;;5029549;28;20018;-69
2022/07/07 09:05:14;;;;;;;3.45;0.70;;;;;;;;;;5028699;28;20032;-69
2022/07/07 09:07:50;;;;;;;6.57;0.88;;;;;;;;;;5029407;28;20029;-69
2022/07/07 09:10:40;;;;;;;4.90;1.02;;;;;;;;;;5027715;28;20033;-70
2022/07/07 09:13:25;;;;;;;3.67;0.90;;;;;;;;;;5025359;28;20021;-69
2022/07/07 09:15:51;;;;;;;7.22;1.10;;;;;;;;;;5027518;28;20508;-70
2022/07/07 09:18:36;;;;;;;5.13;1.35;;;;;;;;;;5024993;28;20029;-69
2022/07/07 09:21:03;;;;;;;4.82;1.27;;;;;;;;;;5028871;28;20043;-69
2022/07/07 09:23:29;;;;;;;5.55;1.02;;;;;;;;;;5028683;28;20028;-70
2022/07/07 09:25:55;;;;;;;7.00;0.77;;;;;;;;;;5030248;28;20033;-70
2022/07/07 09:28:20;;;;;;;3.65;0.93;;;;;;;;;;5029179;28;20040;-70
2022/07/07 09:30:46;;;;;;;6.57;0.88;;;;;;;;;;5030603;28;20481;-70
2022/07/07 09:33:32;;;;;;;4.78;1.17;;;;;;;;;;5027954;28;20060;-70
2022/07/07 09:38:41;;;;;;;6.28;0.85;;;;;;;;;;5029534;28;20093;-70
2022/07/07 09:41:18;;;;;;;2.55;0.88;;;;;;;;;;5029573;28;20029;-70
2022/07/07 09:43:53;;;;;;;2.75;0.80;;;;;;;;;;5029569;28;20021;-70
2022/07/07 09:46:29;;;;;;;4.32;0.80;;;;;;;;;;5026407;28;20021;-71
2022/07/07 09:48:56;;;;;;;6.40;0.90;;;;;;;;;;5026582;28;20501;-69
2022/07/07 09:51:27;;;;;;;6.47;1.05;;;;;;;;;;5024380;28;20075;-70
2022/07/07 09:53:58;;;;;;;5.65;0.90;;;;;;;;;;5027859;28;20446;-70
2022/07/07 09:56:32;;;;;;;5.05;0.98;;;;;;;;;;5029265;28;20093;-70
2022/07/07 09:58:58;;;;;;;5.80;0.93;;;;;;;;;;5030534;28;20452;-69
2022/07/07 10:01:28;;;;;;;5.47;0.90;;;;;;;;;;5027633;28;20021;-70
2022/07/07 10:03:58;;;;;;;3.67;1.00;;;;;;;;;;5031196;28;20041;-70
2022/07/07 10:06:29;;;;;;;3.40;1.42;;;;;;;;;;5029932;28;20028;-69
2022/07/07 10:09:08;;;;;;;3.08;1.15;;;;;;;;;;5028013;28;20009;-70
2022/07/07 10:11:46;;;;;;;12.80;1.48;;;;;;;;;;5026006;28;20868;-70
2022/07/07 10:14:21;;;;;;;5.90;0.85;;;;;;;;;;5029765;28;20025;-70
2022/07/07 10:16:53;;;;;;;4.53;0.80;;;;;;;;;;5029622;28;20018;-70
2022/07/07 10:19:22;;;;;;;5.10;1.10;;;;;;;;;;5029396;28;20044;-70
2022/07/07 10:21:52;;;;;;;6.43;0.80;;;;;;;;;;5029105;28;20017;-70
2022/07/07 10:24:20;;;;;;;2.53;1.08;;;;;;;;;;5029978;28;20057;-70
2022/07/07 10:26:49;;;;;;;6.43;1.23;;;;;;;;;;5030001;28;20103;-70
2022/07/07 10:29:38;;;;;;;8.75;0.82;;;;;;;;;;5028511;28;20021;-70
2022/07/07 10:32:04;;;;;;;11.30;1.02;;;;;;;;;;5027937;28;20018;-70
2022/07/07 10:34:38;;;;;;;6.95;2.10;;;;;;;;;;5027254;28;20478;-70
2022/07/07 10:37:10;;;;;;;2.88;1.58;;;;;;;;;;5027426;28;20017;-70
2022/07/07 10:39:48;;;;;;;2.90;0.68;;;;;;;;;;5027644;28;20021;-69
2022/07/07 10:42:17;;;;;;;1.95;0.63;;;;;;;;;;5029716;28;20033;-70
2022/07/07 10:44:52;;;;;;;3.42;0.73;;;;;;;;;;5026214;28;20029;-70
2022/07/07 10:47:17;;;;;;;2.65;0.93;;;;;;;;;;5026596;28;20021;-68
2022/07/07 10:49:50;;;;;;;6.45;0.80;;;;;;;;;;5027462;28;20108;-70
2022/07/07 10:52:23;;;;;;;6.38;1.15;;;;;;;;;;5026244;28;20022;-70
2022/07/07 10:54:53;;;;;;;5.53;0.90;;;;;;;;;;5027887;28;20025;-70
2022/07/07 10:57:22;;;;;;;5.65;0.73;;;;;;;;;;5028714;28;20022;-70
2022/07/07 11:00:09;;;;;;;1.52;0.43;;;;;;;;;;5028473;28;20022;-70
2022/07/07 11:02:48;;;;;;;3.80;1.08;;;;;;;;;;5026438;28;20812;-70
2022/07/07 11:05:19;;;;;;;2.75;0.68;;;;;;;;;;5027337;28;20028;-70
2022/07/07 11:08:14;;;;;;;7.57;1.95;;;;;;;;;;5028523;28;20030;-71
2022/07/07 11:10:40;;;;;;;3.58;0.75;;;;;;;;;;5008054;28;20084;-70
2022/07/07 11:13:16;;;;;;;2.72;0.90;;;;;;;;;;5029183;28;20397;-70
2022/07/07 11:15:45;;;;;;;3.85;0.65;;;;;;;;;;5027692;28;20025;-70
2022/07/07 11:18:16;;;;;;;2.50;0.80;;;;;;;;;;5023214;28;20549;-70
2022/07/07 11:20:55;;;;;;;14.02;2.38;;;;;;;;;;5027797;28;20032;-70
2022/07/07 11:23:44;;;;;;;13.30;1.52;;;;;;;;;;5026489;28;20389;-70
2022/07/07 11:26:13;;;;;;;6.97;1.25;;;;;;;;;;5023475;28;20045;-70
2022/07/07 11:28:39;;;;;;;7.07;1.52;;;;;;;;;;5025222;28;20493;-70
2022/07/07 11:31:08;;;;;;;2.20;0.60;;;;;;;;;;5025791;28;20033;-70
2022/07/07 11:33:34;;;;;;;4.10;0.90;;;;;;;;;;5027945;28;20112;-70
2022/07/07 11:36:17;;;;;;;3.17;0.65;;;;;;;;;;5028467;28;20084;-69
2022/07/07 11:38:49;;;;;;;3.88;0.73;;;;;;;;;;5028833;28;20394;-70
2022/07/07 11:41:38;;;;;;;2.42;0.70;;;;;;;;;;5027882;28;20140;-70
2022/07/07 11:44:04;;;;;;;11.80;1.95;;;;;;;;;;5025878;28;20017;-70
2022/07/07 11:46:29;;;;;;;1.77;0.70;;;;;;;;;;5025071;28;20032;-70
2022/07/07 11:48:55;;;;;;;9.77;1.58;;;;;;;;;;5024299;28;20366;-71
2022/07/07 11:51:27;;;;;;;2.05;0.70;;;;;;;;;;5025582;28;20020;-70
2022/07/07 11:53:59;;;;;;;2.58;0.93;;;;;;;;;;5025958;28;20512;-71
2022/07/07 11:56:32;;;;;;;11.13;0.93;;;;;;;;;;5021360;28;20029;-69
2022/07/07 11:58:59;;;;;;;9.27;0.70;;;;;;;;;;5025535;28;20158;-69
2022/07/07 12:01:35;;;;;;;3.22;0.63;;;;;;;;;;5026322;28;20025;-70
2022/07/07 12:04:01;;;;;;;6.25;0.82;;;;;;;;;;5022142;28;20585;-69
2022/07/07 12:06:27;;;;;;;5.03;1.25;;;;;;;;;;5023324;28;20021;-69
2022/07/07 12:09:01;;;;;;;6.68;1.13;;;;;;;;;;5028412;28;20017;-70
2022/07/07 12:11:29;;;;;;;7.25;1.13;;;;;;;;;;5024936;28;20029;-70
2022/07/07 12:13:59;;;;;;;5.18;1.15;;;;;;;;;;5025033;28;20064;-69
2022/07/07 12:16:25;;;;;;;4.82;1.00;;;;;;;;;;5024561;28;20013;-70
2022/07/07 12:18:54;;;;;;;8.65;1.40;;;;;;;;;;5031525;28;20034;-70
2022/07/07 12:21:25;;;;;;;5.93;1.63;;;;;;;;;;5031756;28;20025;-70
2022/07/07 12:23:53;;;;;;;6.55;1.10;;;;;;;;;;5030808;28;20252;-70
2022/07/07 12:26:21;;;;;;;5.03;0.90;;;;;;;;;;5025918;28;20028;-70
2022/07/07 12:28:57;;;;;;;6.38;1.17;;;;;;;;;;5027282;28;20025;-69
2022/07/07 12:31:22;;;;;;;4.05;1.20;;;;;;;;;;5027683;28;20024;-69
2022/07/07 12:33:47;;;;;;;7.90;1.13;;;;;;;;;;5031683;28;20021;-69
2022/07/07 12:36:24;;;;;;;1.63;1.00;;;;;;;;;;5032135;28;20116;-69
2022/07/07 12:38:51;;;;;;;3.45;1.20;;;;;;;;;;5029676;28;20433;-69
2022/07/07 12:41:35;;;;;;;2.35;1.05;;;;;;;;;;5029079;28;20025;-69
2022/07/07 12:44:10;;;;;;;12.18;1.60;;;;;;;;;;5028046;28;20038;-68
2022/07/07 12:46:35;;;;;;;5.07;1.10;;;;;;;;;;5028863;28;20025;-69
2022/07/07 12:49:01;;;;;;;56.13;6.80;;;;;;;;;;5029363;28;20071;-69
2022/07/07 12:51:26;;;;;;;107.78;10.55;;;;;;;;;;5029350;28;20112;-69
2022/07/07 12:53:52;;;;;;;5.80;1.52;;;;;;;;;;5031278;28;20028;-68
2022/07/07 12:56:17;;;;;;;2.15;0.68;;;;;;;;;;5028762;28;20075;-69
2022/07/07 12:58:46;;;;;;;4.15;0.85;;;;;;;;;;5030972;28;20024;-70
2022/07/07 13:01:17;;;;;;;8.50;1.23;;;;;;;;;;5028521;28;20095;-69
2022/07/07 13:03:43;;;;;;;4.25;1.17;;;;;;;;;;5030261;28;20025;-70
2022/07/07 13:06:08;;;;;;;60.88;9.85;;;;;;;;;;5024651;28;20040;-69
2022/07/07 13:08:33;;;;;;;31.23;3.77;;;;;;;;;;5029224;28;20587;-70
2022/07/07 13:10:58;;;;;;;3.40;1.00;;;;;;;;;;5030369;28;20346;-69
2022/07/07 13:13:24;;;;;;;2.37;0.90;;;;;;;;;;5031192;28;20021;-69
2022/07/07 13:15:49;;;;;;;6.03;0.70;;;;;;;;;;5030100;28;20303;-69
2022/07/07 13:18:14;;;;;;;3.50;0.57;;;;;;;;;;5028286;28;20780;-69
2022/07/07 13:20:39;;;;;;;7.90;1.40;;;;;;;;;;5029571;28;20018;-70
2022/07/07 13:23:04;;;;;;;5.38;1.58;;;;;;;;;;5033624;22;20037;-84
2022/07/07 13:25:30;;;;;;;4.33;1.17;;;;;;;;;;5009234;28;20366;-86
2022/07/07 13:27:55;;;;;;;6.50;1.67;;;;;;;;;;5007283;28;20268;-85
2022/07/07 13:30:20;;;;;;;7.72;1.33;;;;;;;;;;5007614;28;20025;-87
2022/07/07 13:32:46;;;;;;;5.75;1.17;;;;;;;;;;5008305;28;20028;-84
2022/07/07 13:35:11;;;;;;;3.57;1.03;;;;;;;;;;5005740;28;20026;-85
2022/07/07 13:37:37;;;;;;;3.03;1.65;;;;;;;;;;5009309;28;20277;-85
2022/07/07 13:40:02;;;;;;;6.97;1.17;;;;;;;;;;5008042;28;20083;-85
2022/07/07 13:42:28;;;;;;;2.35;0.80;;;;;;;;;;5007892;28;20029;-85
2022/07/07 13:44:53;;;;;;;8.15;1.30;;;;;;;;;;5007922;28;20022;-84
2022/07/07 13:47:18;;;;;;;3.80;0.88;;;;;;;;;;5007311;28;20105;-86
2022/07/07 13:49:44;;;;;;;4.57;0.90;;;;;;;;;;5024577;28;20445;-86
2022/07/07 13:52:10;;;;;;;5.50;1.20;;;;;;;;;;5016288;28;20018;-86
2022/07/07 13:54:35;;;;;;;3.40;0.90;;;;;;;;;;5012626;28;20114;-86
2022/07/07 13:57:01;;;;;;;3.60;0.82;;;;;;;;;;5018858;28;20018;-86
2022/07/07 13:59:26;;;;;;;2.80;0.77;;;;;;;;;;5015318;28;20018;-86
2022/07/07 14:01:51;;;;;;;3.10;0.80;;;;;;;;;;5012488;28;20022;-86
2022/07/07 14:04:16;;;;;;;3.88;1.00;;;;;;;;;;5019982;28;20292;-85
2022/07/07 14:06:42;;;;;;;2.58;1.00;;;;;;;;;;5014672;28;20022;-85
2022/07/07 14:09:07;;;;;;;4.50;1.33;;;;;;;;;;5011092;28;20033;-86
2022/07/07 14:11:32;;;;;;;7.40;1.10;;;;;;;;;;5007980;28;20870;-86
2022/07/07 14:13:58;;;;;;;6.72;0.88;;;;;;;;;;5005756;28;20307;-85
2022/07/07 14:16:23;;;;;;;1.43;0.80;;;;;;;;;;5001887;28;20541;-86
2022/07/07 14:18:48;;;;;;;3.88;0.70;;;;;;;;;;5000310;28;20284;-84
2022/07/07 14:21:14;;;;;;;7.90;2.20;;;;;;;;;;4998599;28;20048;-85
2022/07/07 14:23:39;;;;;;;1.38;0.50;;;;;;;;;;5001503;28;20338;-86
2022/07/07 14:26:04;;;;;;;4.53;1.00;;;;;;;;;;5033912;23;20427;-66
2022/07/07 14:28:29;;;;;;;2.38;1.00;;;;;;;;;;5010089;28;20095;-66
2022/07/07 14:30:55;;;;;;;2.17;0.90;;;;;;;;;;5004299;28;20478;-66
2022/07/07 14:33:20;;;;;;;2.17;0.90;;;;;;;;;;5006022;28;20021;-66
2022/07/07 14:35:45;;;;;;;4.45;1.10;;;;;;;;;;5006635;28;20299;-65
2022/07/07 14:40:39;;;;;;;3.13;0.75;;;;;;;;;;5008500;28;20116;-69
2022/07/07 14:43:04;;;;;;;5.88;0.90;;;;;;;;;;5008634;28;20068;-69
2022/07/07 14:45:30;;;;;;;6.05;1.17;;;;;;;;;;5009706;28;20041;-69
2022/07/07 14:47:55;;;;;;;3.20;1.50;;;;;;;;;;5005932;28;20071;-69
2022/07/07 14:50:20;;;;;;;4.20;1.10;;;;;;;;;;5003162;28;20029;-69
2022/07/07 14:52:45;;;;;;;2.77;1.30;;;;;;;;;;5005479;28;20815;-68
2022/07/07 14:55:10;;;;;;;3.23;0.80;;;;;;;;;;5007947;28;20026;-69
2022/07/07 14:57:35;;;;;;;2.72;0.93;;;;;;;;;;5008137;28;20018;-69
2022/07/07 15:00:01;;;;;;;2.38;0.80;;;;;;;;;;5006809;28;20384;-68